sensor_id;sensor_type;location;lat;lon;timestamp;P1;durP1;ratioP1;P2;durP2;ratioP2
30533;SDS011;17318;52.390;9.754;2023-04-24T00:00:00;1.08;;;0.60;;
30533;SDS011;17318;52.390;9.754;2023-04-24T00:02:30;2.42;;;0.60;;
30533;SDS011;17318;52.390;9.754;2023-04-24T00:04:57;0.98;;;0.47;;
30533;SDS011;17318;52.390;9.754;2023-04-24T00:07:27;0.50;;;0.50;;
30533;SDS011;17318;52.390;9.754;2023-04-24T00:09:53;1.88;;;0.70;;
30533;SDS011;17318;52.390;9.754;2023-04-24T00:12:19;3.00;;;0.40;;
30533;SDS011;17318;52.390;9.754;2023-04-24T00:14:45;0.95;;;0.50;;
30533;SDS011;17318;52.390;9.754;2023-04-24T00:17:11;3.45;;;0.65;;
30533;SDS011;17318;52.390;9.754;2023-04-24T00:19:37;1.40;;;0.60;;
30533;SDS011;17318;52.390;9.754;2023-04-24T00:22:03;1.23;;;0.50;;
30533;SDS011;17318;52.390;9.754;2023-04-24T00:24:29;0.52;;;0.40;;
30533;SDS011;17318;52.390;9.754;2023-04-24T00:26:54;1.58;;;0.60;;
30533;SDS011;17318;52.390;9.754;2023-04-24T00:29:20;2.08;;;0.47;;
30533;SDS011;17318;52.390;9.754;2023-04-24T00:31:46;0.70;;;0.50;;
30533;SDS011;17318;52.390;9.754;2023-04-24T00:34:11;0.35;;;0.30;;
30533;SDS011;17318;52.390;9.754;2023-04-24T00:36:37;3.53;;;0.70;;
30533;SDS011;17318;52.390;9.754;2023-04-24T00:39:03;2.70;;;0.70;;
30533;SDS011;17318;52.390;9.754;2023-04-24T00:41:28;2.90;;;0.60;;
30533;SDS011;17318;52.390;9.754;2023-04-24T00:43:55;1.38;;;0.60;;
30533;SDS011;17318;52.390;9.754;2023-04-24T00:46:21;0.50;;;0.20;;
30533;SDS011;17318;52.390;9.754;2023-04-24T00:48:47;0.90;;;0.68;;
30533;SDS011;17318;52.390;9.754;2023-04-24T00:51:13;1.13;;;0.57;;
30533;SDS011;17318;52.390;9.754;2023-04-24T00:53:38;1.40;;;0.60;;
30533;SDS011;17318;52.390;9.754;2023-04-24T00:56:04;0.93;;;0.40;;
30533;SDS011;17318;52.390;9.754;2023-04-24T00:58:30;1.48;;;0.60;;
30533;SDS011;17318;52.390;9.754;2023-04-24T01:00:56;4.63;;;0.60;;
30533;SDS011;17318;52.390;9.754;2023-04-24T01:03:24;3.08;;;0.55;;
30533;SDS011;17318;52.390;9.754;2023-04-24T01:05:52;1.15;;;0.68;;
30533;SDS011;17318;52.390;9.754;2023-04-24T01:08:19;3.03;;;0.90;;
30533;SDS011;17318;52.390;9.754;2023-04-24T01:10:48;3.35;;;0.70;;
30533;SDS011;17318;52.390;9.754;2023-04-24T01:13:15;1.13;;;0.47;;
30533;SDS011;17318;52.390;9.754;2023-04-24T01:15:41;0.75;;;0.60;;
30533;SDS011;17318;52.390;9.754;2023-04-24T01:18:07;0.50;;;0.45;;
30533;SDS011;17318;52.390;9.754;2023-04-24T01:20:32;1.95;;;0.60;;
30533;SDS011;17318;52.390;9.754;2023-04-24T01:22:59;0.50;;;0.50;;
30533;SDS011;17318;52.390;9.754;2023-04-24T01:25:26;2.05;;;0.70;;
30533;SDS011;17318;52.390;9.754;2023-04-24T01:27:53;0.95;;;0.50;;
30533;SDS011;17318;52.390;9.754;2023-04-24T01:30:19;2.17;;;0.80;;
30533;SDS011;17318;52.390;9.754;2023-04-24T01:32:45;0.93;;;0.57;;
30533;SDS011;17318;52.390;9.754;2023-04-24T01:35:11;2.30;;;0.50;;
30533;SDS011;17318;52.390;9.754;2023-04-24T01:37:36;0.95;;;0.57;;
30533;SDS011;17318;52.390;9.754;2023-04-24T01:40:03;0.47;;;0.40;;
30533;SDS011;17318;52.390;9.754;2023-04-24T01:42:33;1.50;;;0.60;;
30533;SDS011;17318;52.390;9.754;2023-04-24T01:44:59;0.40;;;0.40;;
30533;SDS011;17318;52.390;9.754;2023-04-24T01:47:28;0.70;;;0.60;;
30533;SDS011;17318;52.390;9.754;2023-04-24T01:49:55;0.80;;;0.60;;
30533;SDS011;17318;52.390;9.754;2023-04-24T01:52:20;0.65;;;0.52;;
30533;SDS011;17318;52.390;9.754;2023-04-24T01:54:46;0.77;;;0.55;;
30533;SDS011;17318;52.390;9.754;2023-04-24T01:57:13;1.40;;;0.70;;
30533;SDS011;17318;52.390;9.754;2023-04-24T01:59:39;2.60;;;0.57;;
30533;SDS011;17318;52.390;9.754;2023-04-24T02:02:05;3.72;;;0.73;;
30533;SDS011;17318;52.390;9.754;2023-04-24T02:04:31;1.30;;;0.90;;
30533;SDS011;17318;52.390;9.754;2023-04-24T02:06:56;2.38;;;0.70;;
30533;SDS011;17318;52.390;9.754;2023-04-24T02:09:22;1.15;;;0.70;;
30533;SDS011;17318;52.390;9.754;2023-04-24T02:11:48;1.00;;;0.70;;
30533;SDS011;17318;52.390;9.754;2023-04-24T02:14:13;0.98;;;0.70;;
30533;SDS011;17318;52.390;9.754;2023-04-24T02:16:39;1.23;;;0.70;;
30533;SDS011;17318;52.390;9.754;2023-04-24T02:19:05;1.75;;;0.93;;
30533;SDS011;17318;52.390;9.754;2023-04-24T02:21:31;2.78;;;0.50;;
30533;SDS011;17318;52.390;9.754;2023-04-24T02:23:57;1.17;;;0.60;;
30533;SDS011;17318;52.390;9.754;2023-04-24T02:26:23;0.60;;;0.60;;
30533;SDS011;17318;52.390;9.754;2023-04-24T02:28:49;1.48;;;0.73;;
30533;SDS011;17318;52.390;9.754;2023-04-24T02:31:15;1.00;;;0.68;;
30533;SDS011;17318;52.390;9.754;2023-04-24T02:33:41;0.50;;;0.50;;
30533;SDS011;17318;52.390;9.754;2023-04-24T02:36:07;0.50;;;0.50;;
30533;SDS011;17318;52.390;9.754;2023-04-24T02:38:32;2.55;;;0.57;;
30533;SDS011;17318;52.390;9.754;2023-04-24T02:40:58;0.47;;;0.40;;
30533;SDS011;17318;52.390;9.754;2023-04-24T02:43:23;1.80;;;0.40;;
30533;SDS011;17318;52.390;9.754;2023-04-24T02:45:49;1.65;;;0.65;;
30533;SDS011;17318;52.390;9.754;2023-04-24T02:48:15;3.72;;;0.60;;
30533;SDS011;17318;52.390;9.754;2023-04-24T02:50:42;1.58;;;0.73;;
30533;SDS011;17318;52.390;9.754;2023-04-24T02:53:07;0.57;;;0.55;;
30533;SDS011;17318;52.390;9.754;2023-04-24T02:55:33;2.45;;;0.60;;
30533;SDS011;17318;52.390;9.754;2023-04-24T02:57:58;1.10;;;0.50;;
30533;SDS011;17318;52.390;9.754;2023-04-24T03:00:25;1.48;;;0.75;;
30533;SDS011;17318;52.390;9.754;2023-04-24T03:02:50;1.05;;;0.60;;
30533;SDS011;17318;52.390;9.754;2023-04-24T03:05:16;1.17;;;0.50;;
30533;SDS011;17318;52.390;9.754;2023-04-24T03:07:42;1.42;;;0.68;;
30533;SDS011;17318;52.390;9.754;2023-04-24T03:10:07;0.65;;;0.40;;
30533;SDS011;17318;52.390;9.754;2023-04-24T03:12:33;3.95;;;0.70;;
30533;SDS011;17318;52.390;9.754;2023-04-24T03:14:59;0.90;;;0.40;;
30533;SDS011;17318;52.390;9.754;2023-04-24T03:17:24;3.30;;;0.70;;
30533;SDS011;17318;52.390;9.754;2023-04-24T03:19:50;0.88;;;0.30;;
30533;SDS011;17318;52.390;9.754;2023-04-24T03:22:16;2.78;;;0.60;;
30533;SDS011;17318;52.390;9.754;2023-04-24T03:24:42;1.40;;;0.60;;
30533;SDS011;17318;52.390;9.754;2023-04-24T03:27:07;0.90;;;0.43;;
30533;SDS011;17318;52.390;9.754;2023-04-24T03:29:33;2.15;;;0.47;;
30533;SDS011;17318;52.390;9.754;2023-04-24T03:31:58;0.40;;;0.40;;
30533;SDS011;17318;52.390;9.754;2023-04-24T03:34:24;0.63;;;0.57;;
30533;SDS011;17318;52.390;9.754;2023-04-24T03:36:50;0.40;;;0.40;;
30533;SDS011;17318;52.390;9.754;2023-04-24T03:39:16;0.77;;;0.55;;
30533;SDS011;17318;52.390;9.754;2023-04-24T03:41:41;1.20;;;0.40;;
30533;SDS011;17318;52.390;9.754;2023-04-24T03:44:07;0.80;;;0.43;;
30533;SDS011;17318;52.390;9.754;2023-04-24T03:46:32;0.75;;;0.60;;
30533;SDS011;17318;52.390;9.754;2023-04-24T03:48:58;0.63;;;0.40;;
30533;SDS011;17318;52.390;9.754;2023-04-24T03:51:24;0.70;;;0.40;;
30533;SDS011;17318;52.390;9.754;2023-04-24T03:53:50;1.50;;;0.93;;
30533;SDS011;17318;52.390;9.754;2023-04-24T03:56:15;0.70;;;0.60;;
30533;SDS011;17318;52.390;9.754;2023-04-24T03:58:41;0.63;;;0.50;;
30533;SDS011;17318;52.390;9.754;2023-04-24T04:01:07;1.30;;;0.60;;
30533;SDS011;17318;52.390;9.754;2023-04-24T04:03:33;0.70;;;0.47;;
30533;SDS011;17318;52.390;9.754;2023-04-24T04:05:59;0.50;;;0.45;;
30533;SDS011;17318;52.390;9.754;2023-04-24T04:08:24;0.80;;;0.55;;
30533;SDS011;17318;52.390;9.754;2023-04-24T04:10:50;2.80;;;0.60;;
30533;SDS011;17318;52.390;9.754;2023-04-24T04:13:16;1.77;;;1.10;;
30533;SDS011;17318;52.390;9.754;2023-04-24T04:15:41;0.40;;;0.30;;
30533;SDS011;17318;52.390;9.754;2023-04-24T04:18:07;1.98;;;0.47;;
30533;SDS011;17318;52.390;9.754;2023-04-24T04:20:33;1.63;;;0.47;;
30533;SDS011;17318;52.390;9.754;2023-04-24T04:22:59;1.30;;;0.65;;
30533;SDS011;17318;52.390;9.754;2023-04-24T04:25:25;3.70;;;0.88;;
30533;SDS011;17318;52.390;9.754;2023-04-24T04:27:50;0.90;;;0.70;;
30533;SDS011;17318;52.390;9.754;2023-04-24T04:30:17;2.35;;;0.47;;
30533;SDS011;17318;52.390;9.754;2023-04-24T04:32:43;1.05;;;0.73;;
30533;SDS011;17318;52.390;9.754;2023-04-24T04:35:09;2.47;;;0.50;;
30533;SDS011;17318;52.390;9.754;2023-04-24T04:37:35;0.60;;;0.47;;
30533;SDS011;17318;52.390;9.754;2023-04-24T04:40:01;0.82;;;0.52;;
30533;SDS011;17318;52.390;9.754;2023-04-24T04:42:31;0.57;;;0.57;;
30533;SDS011;17318;52.390;9.754;2023-04-24T04:44:59;2.35;;;0.50;;
30533;SDS011;17318;52.390;9.754;2023-04-24T04:47:25;1.38;;;0.70;;
30533;SDS011;17318;52.390;9.754;2023-04-24T04:49:51;1.42;;;0.85;;
30533;SDS011;17318;52.390;9.754;2023-04-24T04:52:17;0.43;;;0.43;;
30533;SDS011;17318;52.390;9.754;2023-04-24T04:54:43;4.35;;;0.77;;
30533;SDS011;17318;52.390;9.754;2023-04-24T04:57:10;1.58;;;0.52;;
30533;SDS011;17318;52.390;9.754;2023-04-24T04:59:35;0.50;;;0.50;;
30533;SDS011;17318;52.390;9.754;2023-04-24T05:02:02;1.42;;;0.60;;
30533;SDS011;17318;52.390;9.754;2023-04-24T05:04:27;1.52;;;0.80;;
30533;SDS011;17318;52.390;9.754;2023-04-24T05:06:53;2.22;;;0.90;;
30533;SDS011;17318;52.390;9.754;2023-04-24T05:09:19;1.27;;;0.50;;
30533;SDS011;17318;52.390;9.754;2023-04-24T05:11:44;1.25;;;0.70;;
30533;SDS011;17318;52.390;9.754;2023-04-24T05:14:10;3.03;;;0.60;;
30533;SDS011;17318;52.390;9.754;2023-04-24T05:16:37;1.37;;;0.60;;
30533;SDS011;17318;52.390;9.754;2023-04-24T05:19:03;0.60;;;0.50;;
30533;SDS011;17318;52.390;9.754;2023-04-24T05:21:29;1.40;;;0.70;;
30533;SDS011;17318;52.390;9.754;2023-04-24T05:23:55;1.58;;;0.93;;
30533;SDS011;17318;52.390;9.754;2023-04-24T05:26:21;1.42;;;0.60;;
30533;SDS011;17318;52.390;9.754;2023-04-24T05:28:47;0.90;;;0.50;;
30533;SDS011;17318;52.390;9.754;2023-04-24T05:31:13;1.20;;;0.90;;
30533;SDS011;17318;52.390;9.754;2023-04-24T05:33:39;7.00;;;1.02;;
30533;SDS011;17318;52.390;9.754;2023-04-24T05:36:05;0.63;;;0.50;;
30533;SDS011;17318;52.390;9.754;2023-04-24T05:38:31;1.33;;;0.80;;
30533;SDS011;17318;52.390;9.754;2023-04-24T05:40:57;1.23;;;0.70;;
30533;SDS011;17318;52.390;9.754;2023-04-24T05:43:23;1.05;;;0.47;;
30533;SDS011;17318;52.390;9.754;2023-04-24T05:45:48;2.03;;;0.63;;
30533;SDS011;17318;52.390;9.754;2023-04-24T05:48:14;5.20;;;0.75;;
30533;SDS011;17318;52.390;9.754;2023-04-24T05:50:40;1.67;;;0.73;;
30533;SDS011;17318;52.390;9.754;2023-04-24T05:53:06;0.80;;;0.63;;
30533;SDS011;17318;52.390;9.754;2023-04-24T05:55:32;3.63;;;0.68;;
30533;SDS011;17318;52.390;9.754;2023-04-24T05:57:57;1.95;;;0.88;;
30533;SDS011;17318;52.390;9.754;2023-04-24T06:00:24;4.70;;;0.80;;
30533;SDS011;17318;52.390;9.754;2023-04-24T06:02:50;2.50;;;0.65;;
30533;SDS011;17318;52.390;9.754;2023-04-24T06:05:17;2.55;;;1.05;;
30533;SDS011;17318;52.390;9.754;2023-04-24T06:07:43;5.00;;;1.27;;
30533;SDS011;17318;52.390;9.754;2023-04-24T06:10:09;2.05;;;0.98;;
30533;SDS011;17318;52.390;9.754;2023-04-24T06:12:35;1.00;;;1.00;;
30533;SDS011;17318;52.390;9.754;2023-04-24T06:15:02;3.42;;;1.00;;
30533;SDS011;17318;52.390;9.754;2023-04-24T06:17:28;3.42;;;1.10;;
30533;SDS011;17318;52.390;9.754;2023-04-24T06:19:54;3.50;;;2.00;;
30533;SDS011;17318;52.390;9.754;2023-04-24T06:22:19;1.95;;;1.25;;
30533;SDS011;17318;52.390;9.754;2023-04-24T06:24:45;1.75;;;1.02;;
30533;SDS011;17318;52.390;9.754;2023-04-24T06:27:13;4.70;;;1.17;;
30533;SDS011;17318;52.390;9.754;2023-04-24T06:29:38;1.02;;;0.80;;
30533;SDS011;17318;52.390;9.754;2023-04-24T06:32:04;4.53;;;1.23;;
30533;SDS011;17318;52.390;9.754;2023-04-24T06:34:30;4.50;;;1.00;;
30533;SDS011;17318;52.390;9.754;2023-04-24T06:36:57;2.45;;;1.48;;
30533;SDS011;17318;52.390;9.754;2023-04-24T06:39:23;2.67;;;1.30;;
30533;SDS011;17318;52.390;9.754;2023-04-24T06:41:48;3.50;;;1.33;;
30533;SDS011;17318;52.390;9.754;2023-04-24T06:44:14;6.15;;;1.92;;
30533;SDS011;17318;52.390;9.754;2023-04-24T06:46:40;1.98;;;1.05;;
30533;SDS011;17318;52.390;9.754;2023-04-24T06:49:07;4.03;;;1.40;;
30533;SDS011;17318;52.390;9.754;2023-04-24T06:51:33;2.92;;;1.63;;
30533;SDS011;17318;52.390;9.754;2023-04-24T06:53:59;2.13;;;1.25;;
30533;SDS011;17318;52.390;9.754;2023-04-24T06:56:25;2.25;;;1.38;;
30533;SDS011;17318;52.390;9.754;2023-04-24T06:58:51;3.75;;;1.70;;
30533;SDS011;17318;52.390;9.754;2023-04-24T07:01:17;6.20;;;2.20;;
30533;SDS011;17318;52.390;9.754;2023-04-24T07:03:42;2.03;;;1.83;;
30533;SDS011;17318;52.390;9.754;2023-04-24T07:06:08;4.22;;;2.35;;
30533;SDS011;17318;52.390;9.754;2023-04-24T07:08:36;3.88;;;2.13;;
30533;SDS011;17318;52.390;9.754;2023-04-24T07:11:02;4.20;;;2.72;;
30533;SDS011;17318;52.390;9.754;2023-04-24T07:13:34;5.03;;;2.67;;
30533;SDS011;17318;52.390;9.754;2023-04-24T07:16:00;6.05;;;2.70;;
30533;SDS011;17318;52.390;9.754;2023-04-24T07:18:26;5.07;;;3.00;;
30533;SDS011;17318;52.390;9.754;2023-04-24T07:20:52;6.63;;;3.22;;
30533;SDS011;17318;52.390;9.754;2023-04-24T07:23:17;6.18;;;2.75;;
30533;SDS011;17318;52.390;9.754;2023-04-24T07:25:44;5.90;;;3.42;;
30533;SDS011;17318;52.390;9.754;2023-04-24T07:28:10;5.35;;;3.15;;
30533;SDS011;17318;52.390;9.754;2023-04-24T07:30:36;5.82;;;3.30;;
30533;SDS011;17318;52.390;9.754;2023-04-24T07:33:01;8.60;;;3.03;;
30533;SDS011;17318;52.390;9.754;2023-04-24T07:35:27;5.95;;;4.03;;
30533;SDS011;17318;52.390;9.754;2023-04-24T07:37:53;6.30;;;3.40;;
30533;SDS011;17318;52.390;9.754;2023-04-24T07:40:19;8.20;;;3.95;;
30533;SDS011;17318;52.390;9.754;2023-04-24T07:42:45;7.82;;;3.45;;
30533;SDS011;17318;52.390;9.754;2023-04-24T07:45:13;8.85;;;3.78;;
30533;SDS011;17318;52.390;9.754;2023-04-24T07:47:39;5.68;;;3.45;;
30533;SDS011;17318;52.390;9.754;2023-04-24T07:50:08;7.18;;;3.65;;
30533;SDS011;17318;52.390;9.754;2023-04-24T07:52:34;6.00;;;4.10;;
30533;SDS011;17318;52.390;9.754;2023-04-24T07:55:00;5.97;;;3.85;;
30533;SDS011;17318;52.390;9.754;2023-04-24T07:57:27;7.63;;;4.03;;
30533;SDS011;17318;52.390;9.754;2023-04-24T07:59:53;8.35;;;5.20;;
30533;SDS011;17318;52.390;9.754;2023-04-24T08:02:19;8.48;;;4.50;;
30533;SDS011;17318;52.390;9.754;2023-04-24T08:04:46;6.87;;;4.57;;
30533;SDS011;17318;52.390;9.754;2023-04-24T08:07:12;11.25;;;5.53;;
30533;SDS011;17318;52.390;9.754;2023-04-24T08:09:38;10.85;;;4.95;;
30533;SDS011;17318;52.390;9.754;2023-04-24T08:12:03;8.63;;;5.20;;
30533;SDS011;17318;52.390;9.754;2023-04-24T08:14:29;10.68;;;5.82;;
30533;SDS011;17318;52.390;9.754;2023-04-24T08:16:55;9.63;;;5.32;;
30533;SDS011;17318;52.390;9.754;2023-04-24T08:19:21;9.90;;;5.75;;
30533;SDS011;17318;52.390;9.754;2023-04-24T08:21:47;9.13;;;5.72;;
30533;SDS011;17318;52.390;9.754;2023-04-24T08:24:13;7.90;;;5.07;;
30533;SDS011;17318;52.390;9.754;2023-04-24T08:26:39;8.07;;;4.95;;
30533;SDS011;17318;52.390;9.754;2023-04-24T08:29:04;9.13;;;5.45;;
30533;SDS011;17318;52.390;9.754;2023-04-24T08:31:31;8.27;;;4.57;;
30533;SDS011;17318;52.390;9.754;2023-04-24T08:33:57;9.02;;;4.88;;
30533;SDS011;17318;52.390;9.754;2023-04-24T08:36:25;10.70;;;5.73;;
30533;SDS011;17318;52.390;9.754;2023-04-24T08:38:51;10.13;;;4.90;;
30533;SDS011;17318;52.390;9.754;2023-04-24T08:41:17;8.95;;;4.65;;
30533;SDS011;17318;52.390;9.754;2023-04-24T08:43:45;13.15;;;4.65;;
30533;SDS011;17318;52.390;9.754;2023-04-24T08:46:11;7.97;;;4.65;;
30533;SDS011;17318;52.390;9.754;2023-04-24T08:48:38;7.93;;;4.05;;
30533;SDS011;17318;52.390;9.754;2023-04-24T08:51:06;4.78;;;3.97;;
30533;SDS011;17318;52.390;9.754;2023-04-24T08:53:32;7.50;;;3.67;;
30533;SDS011;17318;52.390;9.754;2023-04-24T08:55:58;7.38;;;3.45;;
30533;SDS011;17318;52.390;9.754;2023-04-24T08:58:26;6.20;;;3.80;;
30533;SDS011;17318;52.390;9.754;2023-04-24T09:00:55;5.72;;;3.58;;
30533;SDS011;17318;52.390;9.754;2023-04-24T09:03:22;7.97;;;3.55;;
30533;SDS011;17318;52.390;9.754;2023-04-24T09:05:49;5.68;;;2.78;;
30533;SDS011;17318;52.390;9.754;2023-04-24T09:08:19;5.15;;;2.38;;
30533;SDS011;17318;52.390;9.754;2023-04-24T09:10:47;3.80;;;2.47;;
30533;SDS011;17318;52.390;9.754;2023-04-24T09:13:13;9.43;;;2.65;;
30533;SDS011;17318;52.390;9.754;2023-04-24T09:15:39;3.25;;;2.25;;
30533;SDS011;17318;52.390;9.754;2023-04-24T09:18:06;3.40;;;2.55;;
30533;SDS011;17318;52.390;9.754;2023-04-24T09:20:32;3.13;;;2.40;;
30533;SDS011;17318;52.390;9.754;2023-04-24T09:22:58;4.43;;;2.30;;
30533;SDS011;17318;52.390;9.754;2023-04-24T09:25:34;3.80;;;2.75;;
30533;SDS011;17318;52.390;9.754;2023-04-24T09:28:03;3.25;;;2.20;;
30533;SDS011;17318;52.390;9.754;2023-04-24T09:30:30;4.50;;;2.50;;
30533;SDS011;17318;52.390;9.754;2023-04-24T09:33:15;4.10;;;2.28;;
30533;SDS011;17318;52.390;9.754;2023-04-24T09:35:42;3.22;;;2.20;;
30533;SDS011;17318;52.390;9.754;2023-04-24T09:38:17;3.45;;;2.50;;
30533;SDS011;17318;52.390;9.754;2023-04-24T09:40:43;3.50;;;2.60;;
30533;SDS011;17318;52.390;9.754;2023-04-24T09:43:12;4.15;;;2.60;;
30533;SDS011;17318;52.390;9.754;2023-04-24T09:45:38;4.80;;;2.38;;
30533;SDS011;17318;52.390;9.754;2023-04-24T09:48:05;5.15;;;2.55;;
30533;SDS011;17318;52.390;9.754;2023-04-24T09:50:33;5.53;;;3.10;;
30533;SDS011;17318;52.390;9.754;2023-04-24T09:53:03;4.85;;;2.85;;
30533;SDS011;17318;52.390;9.754;2023-04-24T09:55:30;5.07;;;2.70;;
30533;SDS011;17318;52.390;9.754;2023-04-24T10:00:27;3.67;;;2.50;;
30533;SDS011;17318;52.390;9.754;2023-04-24T10:02:54;3.95;;;2.17;;
30533;SDS011;17318;52.390;9.754;2023-04-24T10:05:24;3.45;;;2.08;;
30533;SDS011;17318;52.390;9.754;2023-04-24T10:07:57;3.97;;;2.50;;
30533;SDS011;17318;52.390;9.754;2023-04-24T10:10:42;8.77;;;2.40;;
30533;SDS011;17318;52.390;9.754;2023-04-24T10:13:10;3.25;;;2.38;;
30533;SDS011;17318;52.390;9.754;2023-04-24T10:15:37;3.30;;;2.20;;
30533;SDS011;17318;52.390;9.754;2023-04-24T10:18:04;2.80;;;2.35;;
30533;SDS011;17318;52.390;9.754;2023-04-24T10:20:31;5.40;;;2.60;;
30533;SDS011;17318;52.390;9.754;2023-04-24T10:22:58;2.50;;;2.15;;
30533;SDS011;17318;52.390;9.754;2023-04-24T10:25:28;4.63;;;2.63;;
30533;SDS011;17318;52.390;9.754;2023-04-24T10:27:56;4.82;;;2.08;;
30533;SDS011;17318;52.390;9.754;2023-04-24T10:30:24;5.60;;;2.63;;
30533;SDS011;17318;52.390;9.754;2023-04-24T10:32:51;6.20;;;2.45;;
30533;SDS011;17318;52.390;9.754;2023-04-24T10:35:17;5.07;;;2.17;;
30533;SDS011;17318;52.390;9.754;2023-04-24T10:37:49;4.15;;;1.77;;
30533;SDS011;17318;52.390;9.754;2023-04-24T10:40:19;6.18;;;2.00;;
30533;SDS011;17318;52.390;9.754;2023-04-24T10:42:51;4.70;;;2.28;;
30533;SDS011;17318;52.390;9.754;2023-04-24T10:45:20;4.55;;;2.05;;
30533;SDS011;17318;52.390;9.754;2023-04-24T10:48:04;2.23;;;1.73;;
30533;SDS011;17318;52.390;9.754;2023-04-24T10:50:50;3.38;;;1.75;;
30533;SDS011;17318;52.390;9.754;2023-04-24T10:53:18;3.30;;;1.60;;
30533;SDS011;17318;52.390;9.754;2023-04-24T10:55:52;4.88;;;2.50;;
30533;SDS011;17318;52.390;9.754;2023-04-24T10:58:24;4.75;;;1.80;;
30533;SDS011;17318;52.390;9.754;2023-04-24T11:01:00;4.07;;;1.70;;
30533;SDS011;17318;52.390;9.754;2023-04-24T11:03:26;2.42;;;1.77;;
30533;SDS011;17318;52.390;9.754;2023-04-24T11:06:07;4.45;;;1.92;;
30533;SDS011;17318;52.390;9.754;2023-04-24T11:08:43;4.28;;;2.00;;
30533;SDS011;17318;52.390;9.754;2023-04-24T11:11:14;3.55;;;1.88;;
30533;SDS011;17318;52.390;9.754;2023-04-24T11:19:12;3.13;;;2.17;;
30533;SDS011;17318;52.390;9.754;2023-04-24T11:27:26;3.03;;;1.90;;
30533;SDS011;17318;52.390;9.754;2023-04-24T11:34:58;3.70;;;1.45;;
30533;SDS011;17318;52.390;9.754;2023-04-24T11:37:29;2.17;;;1.50;;
30533;SDS011;17318;52.390;9.754;2023-04-24T11:40:03;3.53;;;1.10;;
30533;SDS011;17318;52.390;9.754;2023-04-24T11:42:34;2.53;;;1.55;;
30533;SDS011;17318;52.390;9.754;2023-04-24T11:45:08;2.38;;;1.17;;
30533;SDS011;17318;52.390;9.754;2023-04-24T11:47:35;1.95;;;1.30;;
30533;SDS011;17318;52.390;9.754;2023-04-24T11:50:01;4.93;;;1.15;;
30533;SDS011;17318;52.390;9.754;2023-04-24T11:52:29;4.95;;;1.05;;
30533;SDS011;17318;52.390;9.754;2023-04-24T11:54:55;1.85;;;1.13;;
30533;SDS011;17318;52.390;9.754;2023-04-24T11:57:21;1.02;;;0.90;;
30533;SDS011;17318;52.390;9.754;2023-04-24T11:59:51;1.45;;;0.80;;
30533;SDS011;17318;52.390;9.754;2023-04-24T12:02:20;1.80;;;1.10;;
30533;SDS011;17318;52.390;9.754;2023-04-24T12:04:47;2.78;;;1.10;;
30533;SDS011;17318;52.390;9.754;2023-04-24T12:07:13;0.73;;;0.73;;
30533;SDS011;17318;52.390;9.754;2023-04-24T12:09:42;2.20;;;0.80;;
30533;SDS011;17318;52.390;9.754;2023-04-24T12:12:09;2.33;;;1.05;;
30533;SDS011;17318;52.390;9.754;2023-04-24T12:14:48;2.40;;;0.98;;
30533;SDS011;17318;52.390;9.754;2023-04-24T12:17:23;2.88;;;1.08;;
30533;SDS011;17318;52.390;9.754;2023-04-24T12:19:50;2.33;;;0.80;;
30533;SDS011;17318;52.390;9.754;2023-04-24T12:22:16;3.33;;;0.75;;
30533;SDS011;17318;52.390;9.754;2023-04-24T12:27:23;5.53;;;1.17;;
30533;SDS011;17318;52.390;9.754;2023-04-24T12:29:55;3.65;;;0.60;;
30533;SDS011;17318;52.390;9.754;2023-04-24T12:32:22;1.55;;;0.90;;
30533;SDS011;17318;52.390;9.754;2023-04-24T12:34:49;4.28;;;1.00;;
30533;SDS011;17318;52.390;9.754;2023-04-24T12:37:15;1.40;;;0.60;;
30533;SDS011;17318;52.390;9.754;2023-04-24T12:42:29;0.55;;;0.38;;
30533;SDS011;17318;52.390;9.754;2023-04-24T12:44:56;1.63;;;0.73;;
30533;SDS011;17318;52.390;9.754;2023-04-24T12:47:24;1.95;;;0.93;;
30533;SDS011;17318;52.390;9.754;2023-04-24T12:49:50;0.60;;;0.60;;
30533;SDS011;17318;52.390;9.754;2023-04-24T12:52:17;0.70;;;0.70;;
30533;SDS011;17318;52.390;9.754;2023-04-24T12:54:45;1.70;;;0.80;;
30533;SDS011;17318;52.390;9.754;2023-04-24T12:57:11;2.08;;;1.10;;
30533;SDS011;17318;52.390;9.754;2023-04-24T12:59:37;0.80;;;0.70;;
30533;SDS011;17318;52.390;9.754;2023-04-24T13:02:04;1.10;;;0.80;;
30533;SDS011;17318;52.390;9.754;2023-04-24T13:04:31;1.30;;;0.82;;
30533;SDS011;17318;52.390;9.754;2023-04-24T13:06:57;1.45;;;0.90;;
30533;SDS011;17318;52.390;9.754;2023-04-24T13:09:23;1.73;;;1.10;;
30533;SDS011;17318;52.390;9.754;2023-04-24T13:11:49;1.10;;;0.90;;
30533;SDS011;17318;52.390;9.754;2023-04-24T13:14:15;1.58;;;1.00;;
30533;SDS011;17318;52.390;9.754;2023-04-24T13:16:41;1.15;;;1.00;;
30533;SDS011;17318;52.390;9.754;2023-04-24T13:19:06;7.78;;;4.10;;
30533;SDS011;17318;52.390;9.754;2023-04-24T13:21:32;0.73;;;0.73;;
30533;SDS011;17318;52.390;9.754;2023-04-24T13:23:57;1.60;;;0.90;;
30533;SDS011;17318;52.390;9.754;2023-04-24T13:26:24;2.53;;;1.08;;
30533;SDS011;17318;52.390;9.754;2023-04-24T13:28:50;1.35;;;1.00;;
30533;SDS011;17318;52.390;9.754;2023-04-24T13:31:15;1.25;;;0.75;;
30533;SDS011;17318;52.390;9.754;2023-04-24T13:33:41;1.02;;;0.80;;
30533;SDS011;17318;52.390;9.754;2023-04-24T13:36:07;1.17;;;1.00;;
30533;SDS011;17318;52.390;9.754;2023-04-24T13:38:33;1.85;;;1.00;;
30533;SDS011;17318;52.390;9.754;2023-04-24T13:40:59;0.70;;;0.70;;
30533;SDS011;17318;52.390;9.754;2023-04-24T13:43:25;1.70;;;0.80;;
30533;SDS011;17318;52.390;9.754;2023-04-24T13:45:51;3.78;;;0.95;;
30533;SDS011;17318;52.390;9.754;2023-04-24T13:48:17;0.88;;;0.60;;
30533;SDS011;17318;52.390;9.754;2023-04-24T13:50:43;3.80;;;0.73;;
30533;SDS011;17318;52.390;9.754;2023-04-24T13:53:09;1.02;;;0.63;;
30533;SDS011;17318;52.390;9.754;2023-04-24T13:55:35;2.05;;;0.57;;
30533;SDS011;17318;52.390;9.754;2023-04-24T13:58:01;0.40;;;0.40;;
30533;SDS011;17318;52.390;9.754;2023-04-24T14:00:27;0.43;;;0.30;;
30533;SDS011;17318;52.390;9.754;2023-04-24T14:02:53;1.13;;;0.50;;
30533;SDS011;17318;52.390;9.754;2023-04-24T14:05:19;0.40;;;0.40;;
30533;SDS011;17318;52.390;9.754;2023-04-24T14:07:46;1.20;;;0.35;;
30533;SDS011;17318;52.390;9.754;2023-04-24T14:10:11;0.65;;;0.40;;
30533;SDS011;17318;52.390;9.754;2023-04-24T14:12:37;1.67;;;0.40;;
30533;SDS011;17318;52.390;9.754;2023-04-24T14:15:03;0.60;;;0.50;;
30533;SDS011;17318;52.390;9.754;2023-04-24T14:17:30;1.10;;;0.60;;
30533;SDS011;17318;52.390;9.754;2023-04-24T14:19:55;3.70;;;0.60;;
30533;SDS011;17318;52.390;9.754;2023-04-24T14:22:22;2.92;;;1.05;;
30533;SDS011;17318;52.390;9.754;2023-04-24T14:24:47;4.97;;;1.00;;
30533;SDS011;17318;52.390;9.754;2023-04-24T14:27:13;12.95;;;3.22;;
30533;SDS011;17318;52.390;9.754;2023-04-24T14:29:39;5.70;;;2.20;;
30533;SDS011;17318;52.390;9.754;2023-04-24T14:32:04;2.90;;;1.73;;
30533;SDS011;17318;52.390;9.754;2023-04-24T14:34:30;2.15;;;1.30;;
30533;SDS011;17318;52.390;9.754;2023-04-24T14:36:56;1.88;;;1.10;;
30533;SDS011;17318;52.390;9.754;2023-04-24T14:39:21;4.50;;;1.35;;
30533;SDS011;17318;52.390;9.754;2023-04-24T14:41:47;2.70;;;1.45;;
30533;SDS011;17318;52.390;9.754;2023-04-24T14:44:12;4.53;;;1.33;;
30533;SDS011;17318;52.390;9.754;2023-04-24T14:46:38;1.83;;;1.40;;
30533;SDS011;17318;52.390;9.754;2023-04-24T14:49:04;2.33;;;1.50;;
30533;SDS011;17318;52.390;9.754;2023-04-24T14:51:30;2.00;;;1.35;;
30533;SDS011;17318;52.390;9.754;2023-04-24T14:53:56;3.40;;;1.65;;
30533;SDS011;17318;52.390;9.754;2023-04-24T14:56:24;3.50;;;1.50;;
30533;SDS011;17318;52.390;9.754;2023-04-24T14:58:50;4.07;;;1.38;;
30533;SDS011;17318;52.390;9.754;2023-04-24T15:01:16;7.65;;;2.22;;
30533;SDS011;17318;52.390;9.754;2023-04-24T15:03:42;5.97;;;2.08;;
30533;SDS011;17318;52.390;9.754;2023-04-24T15:06:08;10.48;;;2.00;;
30533;SDS011;17318;52.390;9.754;2023-04-24T15:08:34;3.88;;;1.90;;